Airfield :
LOGIN :

Register | Disclaimer

   EN    FR    IT 

 










Legend :    VFR   Marginal VFR   IFR   Intensive IFR   Very Intensive IFR
Visi :
Ceiling :
>= 8 km
>= 3000ft
5 to 8 km
1000 to 3000 ft
1500m to 5 km
500 to 1000 ft
800 to 1500m
200 to 500 ft
< 800m
< 200 ft
Symbols :   Thunderstorms  Fog  Heavy snow  Heavy precipitations  Wind > 20 kt
SIGMETs :     Misc.  Thunderstorms  Icing  Turbulence  Mountain Waves  Volcanic Ashes







- Airport Elevation : 1302 ft
- IATA code : GNB
- Download approach charts


LFLS - Grenoble / St. Geoirs

CURRENT METAR :
  • 300100Z AUTO 07003KT 040V130 9999 BKN068 BKN100 19/11 Q1017

EXPIRED METARs :
  • 300030Z AUTO 15004KT 9999 BKN070 OVC082 20/10 Q1017
  • 300000Z AUTO 10003KT 9999 OVC070 19/11 Q1017
  • 292330Z AUTO VRB01KT 9999 OVC070 19/10 Q1017
  • 292300Z AUTO VRB02KT 9999 SCT070 BKN082 BKN220 20/09 Q1017
  • 292230Z AUTO VRB03KT 9999 FEW070 BKN080 BKN220 21/08 Q1017

TAF TAF LFLS
Valid from the 29 at 15:00 until the 30 at 15:00 UTC


291400Z 2915/3015 22010KT CAVOK
BECMG 3002/3004 VRB03KT
ATIS : +33 4 76 65 55 89
No reported NOTAMs for that airfield.



MET'MAP, your aeronautical weather chart ! - Copyright ORBIFLY December 2007 - Disclaimer

ORBIFLY MET'MAP TEAM :

Programming & Development : Alexandra Zaïnal
Concept & Development : Baudouin d'Aumeries
Co-Development & Prog : Marc-Olivier Méhu
Technical & hardware support : Manuel Goepfert

Contact : metmap@orbifly.com




SOURCES & CREDITS :

   NOAA